Terminal Aerodrome Forecast
Issued by NWS North Platte, NE

Home | Current Version | Previous Version | Text Only | Print | Product List | Glossary Off
Versions: 1 2 3 4 5 6 7 8 9 10 11 12 13

721
FTUS43 KLBF 280307 AAA
TAFVTN
TAF AMD
KVTN 280307Z 2803/2824 33011KT P6SM VCTS BKN120CB
     FM280600 25008KT P6SM BKN050 BKN250
     FM280700 29010KT P6SM SCT250
     FM281500 34012G18KT P6SM SCT150
     FM282000 32007KT P6SM SCT150=

USA.gov is the U.S. government's official web portal to all federal, state and local government web resources and services.